Create Custom Reports and Graphics: Custom Report

North Region Latest Observations

Map

10 Minute Data

Winnemucca/Elko Latest Observations

Map

10 Minute Data

South Region Latest Observations

Map

10 Minute Data

Latest Observation

111 Stations

10 Minute Data
as of 9/1/26 8:43 AM PDT
Station Date Time Temp (°F) RH (%) Dew Pt (°F) Wind Spd (mph) Wind Dir (°) Wind Gust (mph) Wind Gst Dir (°) Latest Rain (In) Soil Moist (%) Soil Temp (°F) Daily Rain (In) Daily Min Temp (°F) Daily Max Temp (°F) Daily Max Wind (mph)
Hobart Mills 9/1/26 0840 59.0   8.4 38   15 33.6   0.7 2.4   0.6 SSW | 209 6.3   3.1 WSW | 258 0.00 7.6   0.0 66.1   0.3 0.00 46.7   6.6 59.4   8.1 8.2   4.0
Prosser Dam 9/1/26 0840 60.8   12.0 33   31 31.4   5.8 7.5   7.2 SSE | 161 15.0   12.4 S | 182 0.00 5.4   0.0 63.5   0.2 0.00 45.4   8.5 61.2   11.8 18.0   14.5
West Incline Village 9/1/26 0840 53.7   4.2 45   22 32.8   14.2 4.2   4.2 S | 173 12.3   12.3 SSE | 160 0.00 11.8   0.1 58.9   0.1 0.00 48.6   4.5 53.9   5.1 12.3   8.1
Incline Village (Fairview Blvd) 9/1/26 0840 53.7   2.1 48   33 34.5   15.4 0.4   0.4 SSW | 193 3.1   3.1 SSE | 158 0.00 7.7   0.0 72.3   0.0 0.00 51.0   3.2 56.0   3.2 7.6   5.2
Incline Village (Diamond Peak) 9/1/26 0840 53.3   1.9 44   32 31.9   15.8 1.3   0.6 N | 359 2.6   0.9 NE | 36 0.00 2.5   0.0 62.2   0.3 0.00 49.6   4.2 53.3   4.1 9.1   5.7
Incline Village (Mill Creek) 5/30/36 1610 74.5 37 46.5 0.5 SW | 236 1.7 SSW | 213 0.00 0.0 0.0 0.00 74.4 74.5 1.7
Incline Village (Lakeshore Blvd) 9/1/26 0840 58.1   2.6 51   18 40.2   5.3 1.4   1.4 S | 189 4.0   4.0 SW | 221 0.00 23.0   3.4 58.3   0.4 0.00 46.6   0.2 58.2   1.7 5.7   2.9
Glenbrook 9/1/26 0840 58.1   0.1 40   38 34.0   17.1 2.9   2.9 SSE | 151 7.5   7.5 ESE | 111 0.00 42.9   0.1 59.5   0.2 0.00 51.6   2.4 58.8   0.2 14.3   9.3
Zephyr Cove 9/1/26 0840 55.7   2.2 41   22 32.3   13.0 0.5   0.4 SE | 132 4.1   3.6 E | 80 0.00 2.8   0.0 62.6   0.4 0.00 51.6   0.4 57.7   0.4 6.7   5.1
Kingsbury Grade 9/1/26 0840 56.9   1.2 39   20 32.3   11.7 0.7   0.5 NW | 310 4.7   2.0 NW | 321 0.00 2.4   0.0 67.6   0.5 0.00 47.8   0.8 57.1   1.2 6.3   1.7
South Daggett Pass (Ridge) 9/1/26 0840 52.7   4.9 44   13 31.5   11.0 1.9   1.7 NW | 310 8.2   3.5 NW | 326 0.00 2.2   0.0 64.7   0.3 0.00 48.1   5.5 53.2   6.8 17.8   13.0
Palomino Valley 9/1/26 0840 66.4   3.2 29   3 33.1   0.6 3.2   2.3 ESE | 112 5.8   1.9 E | 100 0.00 6.7   0.0 77.5   0.7 0.00 53.3   6.1 66.9   3.1 8.2   2.6
East Cold Springs 9/1/26 0840 62.2   0.8 32   1 32.4   1.2 2.6   0.1 ESE | 117 6.2   1.9 ESE | 111 0.00 1.6   0.0 71.9   0.6 0.00 56.0   0.1 62.8   0.9 23.7   12.2
Peavine 8/22/26 1700 81.6   1.5 27   0 44.0   1.5 22.7   10.4 SW | 225 48.4   26.2 SW | 220 0.00 - 53.4   0.0 0.00 69.4   2.1 87.6   2.1 48.4   26.2
West Verdi Peak 9/1/26 0940 58.9   5.1 35   2 31.0   2.7 3.4   0.7 SSE | 164 10.8   1.0 ESE | 119 0.00 6.6   0.0 70.0   0.2 0.00 51.9   0.5 59.4   4.8 16.8   6.1
West Verdi 9/1/26 0840 64.3   3.7 29   16 31.7   7.8 2.3   1.2 NE | 37 5.7   2.4 NNE | 31 0.00 6.2   0.0 81.1   0.7 0.00 57.7   7.5 65.0   3.9 28.9   23.0
South Verdi 9/1/26 0840 62.3   4.3 31   3 31.1   6.4 6.5   3.7 S | 174 12.8   2.9 S | 171 0.00 10.6   0.0 71.3   0.5 0.00 57.3   3.7 62.5   4.2 38.5   20.6
Northwest Reno 9/1/26 0840 64.6   2.1 28   13 30.5   7.8 11.4   11.4 SW | 226 16.8   16.8 SW | 217 0.00 25.2   0.1 78.1   1.3 0.00 59.1   0.3 65.2   0.1 45.1   38.5
North Lawton 8/28/26 1620 63.8   17.1 74   52 55.4   16.5 1.5   11.6 ESE | 121 5.1   19.0 SE | 124 0.00 - 78.2   0.0 0.05 59.2   7.5 71.9   13.3 20.4   4.6
West Reno (Mogul) 9/1/26 0840 65.1   2.9 30   9 33.0   4.3 1.5   1.1 E | 90 4.6   0.6 E | 79 0.00 19.7   0.0 79.4   0.1 0.00 57.2   2.7 66.9   3.4 19.1   9.6
Caughlin (Hunter Lake Trail) 9/1/26 0840 62.6   1.7 36   9 35.4   3.9 2.3   1.5 NNE | 18 5.0   3.1 NE | 51 0.00 16.6   0.0 74.7   0.6 0.00 57.0   2.1 64.6   1.8 12.5   3.7
ArrowCreek 9/1/26 0840 62.3   1.5 39   1 37.3   2.1 4.4   4.4 NNE | 23 7.6   7.6 NNE | 30 0.00 - 32.0   0.0 0.00 55.4   0.2 65.0   0.5 12.4   2.9
Tracy 9/1/26 0840 66.8   2.8 30   6 34.8   2.1 5.9   3.8 SW | 226 7.9   4.2 SW | 236 0.00 16.1   0.0 80.4   1.0 0.00 61.4   3.8 71.1   1.4 14.7   5.4
Virginia Highlands 9/1/26 0840 62.0   4.4 28   3 28.7   6.5 5.8   4.6 SSW | 212 14.8   10.8 SW | 229 0.00 8.0   0.0 75.0   0.2 0.00 55.9   3.6 62.9   4.2 14.8   10.6
Virginia City 9/1/26 0840 60.2   4.0 29   4 28.2   6.4 10.8   8.0 SSW | 198 17.0   11.8 SSW | 205 0.00 4.8   0.1 74.8   0.8 0.00 55.4   4.8 62.7   4.1 21.6   16.4
Six Mile Canyon 9/1/26 0840 68.9   4.9 22   16 28.6   9.2 11.3   9.2 SW | 228 17.1   11.8 SW | 220 0.00 12.4   0.1 78.0   1.4 0.00 61.6   4.2 70.6   3.5 17.4   12.0
Mt Rose Highway 9/1/26 0840 55.9   7.4 40   4 31.7   3.7 3.9   3.1 SSE | 168 10.4   6.6 SSW | 192 0.00 7.5   0.0 62.8   0.0 0.00 52.1   3.9 57.8   5.8 24.3   16.1
Pleasant Valley 9/1/26 0840 66.8   3.1 26   14 31.2   7.8 8.0   2.9 S | 186 13.3   5.0 SSW | 207 0.00 2.4   0.0 78.7   1.0 0.00 51.3   0.6 67.0   3.1 18.1   9.8
New Washoe City 9/1/26 0840 65.3   2.7 25   17 29.0   10.4 6.3   6.3 S | 181 11.6   11.6 SSE | 161 0.00 3.5   0.0 74.5   0.1 0.00 58.8   6.8 66.6   3.4 17.1   8.3
Franktown Creek 9/1/26 0840 66.7   6.4 30   26 34.1   10.6 7.0   6.7 SSW | 195 14.8   13.2 S | 176 0.00 7.1   0.0 73.1   0.1 0.00 56.3   6.6 69.6   8.5 27.2   24.1
Musgrove Creek 9/1/26 0840 64.4   0.9 31   10 33.1   6.5 3.6   2.2 E | 82 13.2   10.2 E | 84 0.00 10.3   0.1 61.0   0.2 0.00 55.2   2.5 65.0   0.3 13.2   9.4
East Carson 11/23/24 0110 28.6   28.4 - - 4.7   11.0 SW | 220 14.7   10.1 SW | 219 0.02 - 50.9   0.1 0.02 -25.9   79.1 42.9   14.6 16.0   10.7
Kings Canyon 9/1/26 0840 65.5   2.7 30   13 33.4   6.5 4.1   1.7 SSW | 211 8.9   4.3 SW | 225 0.00 4.2   0.1 69.7   1.2 0.00 61.1   10.0 68.4   5.1 31.7   24.7
Carson City (Voltaire Canyon) 9/1/26 0840 65.2   2.1 28   17 31.6   9.8 8.6   1.7 SSE | 158 15.2   4.7 S | 173 0.00 2.8   0.0 79.3   0.2 0.00 61.3   1.8 69.1   0.4 26.8   15.0
Jacks Valley 9/1/26 0840 64.6   2.1 28   18 30.8   10.6 6.8   4.7 ESE | 121 9.4   5.0 ESE | 104 0.00 4.5   0.0 75.6   1.6 0.00 57.9   3.9 67.1   4.0 25.8   20.6
Genoa 9/1/26 0840 66.0   4.6 30   24 33.8   11.1 0.7   0.7 ENE | 66 3.1   3.1 ENE | 72 0.00 2.3   0.1 66.2   2.3 0.00 61.6   7.1 69.5   5.5 13.9   11.7
South Genoa (Walleys Hot Springs) 9/1/26 0840 66.6   7.9 31   28 35.1   9.6 0.8   1.8 ENE | 70 4.6   0.4 E | 80 0.00 4.7   0.0 74.6   0.2 0.00 56.5   10.7 70.4   8.9 26.7   22.5
SW Gardnerville (HWY 88) 9/1/26 0840 66.8   11.1 30   40 34.5   11.6 7.6   7.6 SSE | 154 12.4   12.4 S | 179 0.00 2.8   0.0 70.8   0.6 0.00 59.7   13.6 67.0   5.2 18.8   12.8
Sheridan 9/1/26 0840 66.5   8.1 26   33 31.0   13.5 3.5   1.7 NNW | 341 6.6   2.6 NW | 319 0.00 1.1   0.0 74.2   0.3 0.00 58.2   7.5 67.9   3.9 14.8   9.9
Ruhenstroth 9/1/26 0840 65.4   2.1 25   16 28.9   10.4 8.0   7.4 S | 182 11.7   8.4 S | 172 0.00 6.8   0.1 74.4   2.3 0.00 60.0   10.2 67.7   3.8 20.5   13.0
Double Spring 9/1/26 0840 62.6   0.5 27   17 27.8   11.9 5.8   5.6 SE | 142 9.4   8.1 SE | 131 0.00 25.4   0.0 71.0   1.5 0.00 50.9   5.2 62.7   0.1 12.2   6.8
North Topaz Lake 9/1/26 0840 65.3   0.3 25   10 28.5   8.7 3.5   1.2 ESE | 120 7.7   3.2 SE | 145 0.00 7.4   0.1 69.4   1.7 0.00 61.0   2.1 68.1   1.3 16.3   9.8
Wild Oat Mountain 9/1/26 0840 62.7   1.3 28   9 28.8   8.1 4.6   3.7 SE | 137 7.9   4.8 SE | 144 0.00 5.7   0.0 70.2   1.0 0.00 58.2   0.9 65.1   0.8 24.8   18.3
Smith Valley 9/1/26 0840 69.0   7.8 24   21 30.5   9.2 3.5   1.2 SE | 128 8.9   5.0 SSE | 150 0.00 2.8   0.1 76.7   1.2 0.00 59.8   4.4 71.8   3.3 14.8   2.5
Pine Grove Mountain 9/1/26 0840 55.9   2.8 26   6 21.1   7.8 4.0   2.3 SE | 128 7.9   4.6 ESE | 115 0.00 7.2   0.0 64.8   1.6 0.00 50.6   4.8 57.5   1.9 11.9   4.0
Paradise Hill 9/1/26 0840 64.2   1.1 31   7 32.7   5.6 4.4   4.7 ENE | 76 7.5   5.3 ENE | 70 0.00 10.2   0.0 73.3   2.2 0.00 55.3   11.5 66.4   0.4 9.7   6.1
Winnemucca 9/1/26 0840 69.4   9.3 26   5 32.6   3.5 8.8   1.8 SW | 218 14.2   2.1 SW | 215 0.00 5.8   0.0 75.7   1.0 0.00 65.0   15.6 71.2   8.9 14.2   0.7
NE Elko 9/1/26 0840 59.9   4.4 46   12 39.1   11.8 3.6   2.1 E | 89 5.2   0.0 ESE | 116 0.00 5.7   0.0 68.8   0.3 0.00 46.2   7.3 60.4   4.5 9.4   3.6
North Elko 9/1/26 0840 63.6   2.9 43   14 40.5   12.7 6.2   4.2 NE | 51 9.2   4.0 NE | 53 0.00 24.9   0.1 72.8   0.9 0.00 57.5   6.5 66.6   4.1 12.0   1.4
South Elko 9/1/26 0840 66.1   19.7 45   3 43.9   19.4 9.3   5.9 S | 174 14.7   9.1 SSE | 166 0.00 13.6   0.1 67.5   0.6 0.00 55.7   1.1 66.8 18.9   7.2
Lamoille 9/1/26 0840 60.4   5.1 48   5 40.7   7.5 4.3   1.6 NNW | 347 6.3   1.9 N | 349 0.00 6.4   0.1 66.0   0.0 0.00 51.7   3.3 61.0   4.8 10.6   2.6
Reid Gardner Sub 9/1/26 0840 84.2   0.3 46   19 61.2   13.9 2.0   1.6 NW | 304 5.0   3.0 WNW | 292 0.00 25.8   0.3 89.4   0.4 0.00 71.9   2.6 84.5   0.9 6.6   0.9
Corn Creek 9/1/26 0840 79.2   2.7 20   12 34.6   14.2 14.2   0.2 E | 99 22.2   2.2 E | 92 0.00 3.1   0.1 86.6   1.1 0.00 71.9   1.9 82.0   0.5 27.7   6.6
Lucky Strike 9/1/26 0840 71.3   1.8 18   15 26.0   16.3 7.2   4.8 SE | 125 17.6   3.2 SE | 140 0.00 3.1   0.1 80.2   0.3 0.00 64.8   4.2 73.1   2.0 28.8   6.6
Lower Angel Peak 9/1/26 0840 67.4   3.7 24   13 29.2   14.1 5.7   2.6 S | 191 12.9   5.0 SSW | 195 0.00 3.2   0.1 74.1   0.3 0.00 60.0   1.8 67.9   4.1 28.4   10.6
Angel Peak 9/1/26 0840 53.5   4.5 32   20 24.3   15.9 19.5   2.4 S | 190 27.0   2.6 S | 190 0.00 2.5   0.0 62.6   1.0 0.00 51.2   3.7 55.1   4.5 53.2   25.6
Upper Kyle Canyon 9/1/26 0840 59.1   3.2 27   19 25.6   15.7 4.5   1.9 NNE | 16 17.4   15.3 N | 11 0.00 7.8   0.0 75.4   0.4 0.00 55.8   4.5 60.2   5.1 42.1   9.4
Mt Charleston 9/1/26 0840 61.1   3.2 26   17 25.9   15.2 3.9   1.6 ENE | 69 14.2   5.3 NNE | 15 0.00 13.4   0.0 69.1   0.2 0.00 57.4   1.8 61.6   4.3 29.7   13.3
Mid Kyle Canyon 9/1/26 0840 67.4   4.0 23   12 28.6   14.2 9.1   3.5 SSW | 204 23.0   4.9 SSW | 202 0.00 5.8   0.0 74.9   0.5 0.00 59.6   0.9 67.8   4.2 33.0   14.9
Blue Diamond 9/1/26 0840 80.0   2.8 15   13 28.3   17.9 4.7   3.0 ESE | 110 6.7   4.7 ESE | 119 0.00 1.2   0.0 85.3   0.3 0.00 71.5   1.4 80.6   3.2 14.7   3.2
Artesian Sub 9/1/26 0840 86.0   4.3 17   8 35.6   13.9 5.4   1.6 ESE | 118 9.3   6.6 SSE | 164 0.00 11.7   0.1 94.1   0.4 0.00 78.4   2.7 88.2   2.7 12.0   3.8
North Henderson 9/1/26 0840 85.1   4.3 47   9 62.7   1.9 8.5   0.1 SSE | 156 15.9   3.8 SSE | 155 0.00 10.5   0.0 98.2   0.9 0.00 81.0   3.4 89.0   2.8 17.3   2.2
Sandy Valley 9/1/26 0840 79.2   4.1 18   12 32.2   17.0 3.4   0.6 SSE | 164 5.1   0.4 SSE | 153 0.00 8.3   0.2 87.8   1.3 0.00 73.3   0.9 79.6   4.0 10.9   1.2
Searchlight 9/1/26 0840 74.8   3.9 63   11 61.5   1.5 16.5   7.6 SSE | 168 23.4   8.8 SSE | 158 0.00 6.0   0.1 85.9   2.3 0.00 68.0   2.9 75.4   3.9 23.4   8.8
Laughlin 9/1/26 0840 89.8   2.9 50   7 68.4   1.7 8.2   1.1 SSW | 193 15.0   3.4 SSE | 165 0.00 4.5   0.1 100.4   1.6 0.00 86.0   3.6 90.4   3.0 17.0   2.7
31Mission Hills 9/1/26 0840 80.6   4.2 49   9 59.5   1.6 8.5   0.2 SSW | 192 15.5   1.0 S | 190 0.00 7.2   0.3 85.9   2.5 0.00 76.8   4.1 81.1   5.8 19.5   3.0
32 Enterprise Sierra Cliffs 9/1/26 0840 81.1   3.3 13   11 26.0   18.1 7.8   0.5 ESE | 119 10.2   0.6 SE | 124 0.00 1.3   0.1 83.0   1.4 0.00 76.3   1.7 81.4   3.7 19.9   1.5
29 Calico Basin 9/1/26 0840 79.9   0.3 11   17 20.4   23.5 9.5   7.3 SSW | 198 13.5   9.6 SSW | 200 0.00 2.6   0.0 85.5   0.4 0.00 72.1   3.3 80.3   2.9 18.9   5.5
28 Indian Springs 9/1/26 0840 80.2   0.2 15   9 28.9   11.3 3.7   2.9 NE | 37 11.2   7.5 NE | 55 0.00 4.6   0.0 87.1   0.7 0.00 69.4   0.7 80.6   0.3 11.2   4.0
30 Jean 9/1/26 0840 77.3   4.3 17   9 29.8   14.3 3.2   6.5 SSW | 200 5.5   7.7 S | 190 0.00 5.2   0.1 83.5   1.9 0.00 64.3   6.7 77.7   5.3 9.7   6.3
VC Highlands NW 9/1/26 0840 59.9   4.9 27   3 26.3   6.8 7.5   4.9 S | 190 14.3   10.2 S | 180 0.00 1.6   0.0 65.5   1.6 0.00 55.0   4.4 60.6   5.5 16.2   11.8
Glenbrook-Spooner Summit 9/1/26 0640 51.4   2.0 35   37 25.0   16.0 2.2   0.6 WNW | 293 5.1   0.2 WNW | 290 0.00 7.9   0.1 66.9   1.0 0.00 49.7   1.9 55.0   4.1 14.7   8.7
Hobo Hot Springs 9/1/26 0840 65.9   4.6 28   18 31.9   8.7 3.3   2.1 SSW | 195 8.6   5.8 SSE | 168 0.00 1.0   0.1 69.8   0.6 0.00 56.6   12.1 66.4   4.6 20.5   16.8
Jack Valley Ranch 2 9/1/26 0840 65.8   3.1 27   18 31.3   10.3 2.0   0.3 SSE | 166 6.2   3.0 S | 174 0.00 2.2   0.1 76.1   0.7 0.00 60.4   5.9 67.2   4.3 35.0   25.1
Genoa North 2 9/1/26 0840 65.6   4.9 26   22 29.5   11.4 2.1   0.6 NE | 52 5.5   2.4 E | 80 0.00 0.8   0.0 75.4   1.6 0.00 60.1   6.2 67.9   4.2 27.2   21.5
Mottsville 2 9/1/26 0840 65.0   6.3 28   29 30.7   12.6 1.6   1.4 S | 177 2.9   2.0 S | 173 0.00 1.2   0.1 73.4   0.3 0.00 57.0   9.5 67.4   6.2 19.1   14.3
Kingsbury Village 3 9/1/26 0840 51.1   4.0 42   3 29.0   5.5 1.6   0.3 NNW | 327 4.0   1.5 NW | 324 0.00 3.2   0.0 61.2   0.5 0.00 45.3   4.0 51.8   4.0 9.1   4.6
Kingsbury-Benjamin Dr 2 9/1/26 0840 53.4   4.8 40   12 29.5   10.8 1.7   0.1 WSW | 237 5.1   0.9 SSW | 203 0.00 3.2   0.2 68.5   0.6 0.00 48.9   4.0 54.2   4.6 13.7   8.2
Smith Valley-Wellington 9/1/26 0840 68.0   4.5 21   15 27.1   9.2 6.4   1.2 SW | 231 11.7   2.4 SW | 236 0.00 3.6   0.0 81.4   1.1 0.00 61.5   6.0 68.4   4.5 18.1   4.1
Sheridan South 2 9/1/26 0840 67.1   7.8 27   33 31.7   13.5 7.1   5.5 SSE | 162 13.4   9.2 SSW | 208 0.00 0.5   0.0 73.3   0.8 0.00 56.3   9.3 67.4   7.5 16.0   11.7
Silver Springs 9/1/26 0840 70.8   6.3 20   14 27.8   7.3 17.9   17.2 W | 259 25.7   23.5 W | 273 0.00 5.1   0.1 81.3   2.4 0.00 66.4   12.2 73.6   6.5 28.0   21.9
Fernley 9/1/26 0840 69.8   2.7 21   6 28.6   4.1 5.8   4.1 WNW | 283 10.4   7.2 NNW | 330 0.00 3.0   0.0 75.8   3.4 0.00 61.2   6.3 70.5   2.9 14.4   4.8
Spanish Springs 9/1/26 0840 64.9   3.0 33   6 34.9   1.8 0.2   0.2 NW | 326 1.9   0.2 NW | 326 0.00 10.5   0.1 77.3   1.5 0.00 53.3   5.5 66.9   4.3 10.9   8.3
Suttcliffe South 2 9/1/26 0840 68.7   5.1 22   7 28.6   2.6 10.1   1.4 WSW | 243 13.8   1.5 WSW | 251 0.00 4.4   0.1 73.3   3.1 0.00 59.0   7.5 69.0   5.0 15.9   3.6
Lemmon Valley North 9/1/26 0840 64.8   4.0 26   5 28.7   0.5 8.5   8.4 SSW | 206 14.7   13.5 SSW | 203 0.00 2.1   0.1 73.1   1.3 0.00 60.8   21.8 65.3   3.4 27.8   23.6
Lemmon Valley NW 3 9/1/26 0840 65.7   4.7 22   14 25.5   8.1 1.8   0.7 SSW | 211 5.1   1.5 SW | 222 0.00 1.2   0.0 73.7   3.7 0.00 60.7   14.7 65.8   4.1 23.6   16.6
VC Highlands North 9/1/26 0840 61.8   4.6 26   2 26.6   5.4 7.2   7.1 SW | 214 13.2   12.1 SSW | 207 0.00 4.7   0.2 67.3   4.2 0.00 56.5   10.4 62.2   5.2 18.8   17.3
Upper Voltaire Cyn 9/1/26 0840 62.3   1.2 27   15 27.6   12.2 6.2   4.2 SSE | 147 9.2   4.6 SSE | 154 0.00 1.1   0.0 72.5   1.2 0.00 57.1   1.4 64.6   1.9 32.8   26.1
Yerington NW 9/1/26 0840 65.3   6.5 48   5 45.2   3.3 2.5   2.5 E | 90 4.6   4.6 ESE | 102 0.00 7.3   0.1 74.7   2.2 0.00 57.4   11.0 67.1   3.1 9.2   1.5
Spanish Springs SW 9/1/26 0840 65.6   2.8 29   5 32.4   1.3 0.7   0.7 SSE | 160 2.0   1.0 SSE | 157 0.00 1.4   0.1 74.3   2.0 0.00 55.6   3.4 66.1   2.6 8.1   4.5
Cosgrave 2 8/27/26 0750 62.9   4.1 34   3 33.8   1.4 2.6   0.5 WSW | 246 4.1   1.0 W | 267 0.00 3.8   0.1 77.4   2.9 0.00 62.7   3.3 77.4   3.5 11.2   3.9
Winnemucca-Grass Valley 2 9/1/26 0840 62.8   5.9 53   4 45.4   7.3 2.9   1.1 SE | 131 4.2   0.9 SE | 134 0.00 7.8   0.1 65.8   3.9 0.00 51.8   12.1 70.6   12.8 15.2   6.1
Winnemucca-Dutch Flat Rd 9/1/26 0840 69.9   6.1 22   5 29.9   0.2 10.4   1.4 WSW | 248 19.6   7.5 WSW | 243 0.00 6.2   0.1 73.3   1.7 0.00 60.0   8.6 70.2   6.0 19.6   6.3
Paradise Valley 2 9/1/26 0840 62.2   0.2 32   5 32.4   3.8 4.1   2.1 N | 352 6.3   2.5 NNW | 343 0.00 12.8   0.1 72.0   2.2 0.00 52.9   12.6 64.3   1.1 8.8   0.4
Golconda 2 9/1/26 0840 70.1   7.7 24   3 31.2   3.9 1.3   0.4 SE | 125 4.2   1.4 SE | 126 0.00 1.9   0.2 72.9   4.5 0.00 60.4   11.7 70.7   7.3 9.2   2.1
Battle Mountain - South 9/1/26 0840 67.6   7.3 22   3 26.9   2.8 2.7   2.8 SE | 130 4.7   3.5 ESE | 116 0.00 9.2   0.1 73.7   1.2 0.00 57.9   18.4 68.1   7.0 7.5   1.6
Geiger Summit 9/1/26 0840 58.3   6.6 100   0 58.3   6.6 5.0   4.1 SW | 226 11.2   5.2 SSW | 208 0.00 6.0   0.2 63.4   1.8 0.00 53.0   4.0 59.0   6.0 21.0   15.0
Combs Canyon 3 9/1/26 0840 64.6   2.7 27   16 30.0   9.2 2.4   0.8 ENE | 66 5.8   2.2 NE | 54 0.00 1.0   0.1 74.6   1.3 0.00 59.1   3.9 68.6   4.4 15.9   8.0
Clear Creek 9/1/26 0840 62.8   0.2 27   15 28.7   10.9 2.2   0.3 SE | 133 6.0   1.2 SE | 142 0.00 3.5   0.1 71.9   1.2 0.00 59.5   7.5 65.3   1.9 33.5   28.7
Eastlake 2 9/1/26 0840 65.0   3.6 26   31 28.8   17.1 3.7   2.0 SSE | 147 6.8   3.5 E | 101 0.00 3.4   0.0 73.9   0.6 0.00 57.9   10.1 66.8   4.8 22.2   18.4
Lovelock-Colado 2 9/1/26 0840 67.5   0.5 27   8 32.8   8.9 2.8   8.3 NNE | 20 5.1   11.7 N | 4 0.00 - 76.4   1.4 0.00 54.3   2.2 70.9   3.2 7.2   11.5
Spanish Springs NW 9/1/26 0840 65.6   3.4 28   11 31.3   5.2 1.0   0.7 S | 175 3.8   0.1 S | 177 0.00 12.6   0.1 69.8   1.7 0.00 55.9   6.9 67.9   5.2 10.1   5.8
Battle Mountain NW 9/1/26 0840 69.3   8.0 26   3 33.4   9.4 4.8   3.5 NW | 316 7.9   3.2 WNW | 296 0.00 8.9   0.1 76.7   1.7 0.00 61.0   17.4 73.2   11.4 16.4   5.2
Austin 2 9/1/26 0740 62.8   2.5 18   6 19.3   4.4 17.8   15.9 S | 172 25.7   22.4 S | 179 0.00 2.0   0.0 56.7   2.9 0.00 49.1   11.8 64.2   2.8 30.4   22.6
Elko-Osino 9/1/26 0840 60.8   3.8 42   12 37.8   11.6 6.7   4.4 NNE | 20 9.6   5.2 NNE | 24 0.00 1.4   0.1 73.2   0.1 0.00 47.3   6.7 61.2   3.6 10.6   0.0
Elko-Bill Fishpond 2 9/1/26 0840 62.8   5.9 42   8 39.3   10.3 0.7   3.1 ENE | 64 3.6   2.7 ENE | 78 0.00 3.4   0.0 65.1   0.5 0.00 46.4   4.6 63.6   5.9 9.7   1.1
Spring Creek SE 2 9/1/26 0840 66.6   10.4 40   5 41.4   12.9 10.4   9.0 SSW | 204 14.4   11.1 SSW | 194 0.00 0.3   0.0 67.9   0.7 0.00 48.8   6.0 67.3   9.0 14.4   2.6
Spring Creek NW 9/1/26 0840 60.6   8.7 45   8 39.0   12.6 1.8   2.0 E | 84 4.3   1.4 E | 100 0.00 2.2   0.0 70.4   0.1 0.00 52.0   4.1 61.6   1.2 9.8   2.2
Elko-Moleen 9/1/26 0840 67.6 38 41.1 3.2 ESE | 114 5.2 E | 86 0.00 6.4 77.6 0.00 55.8 68.8 19.8
Elko-West 9/1/26 0840 64.0 42 40.7 7.8 NE | 41 10.2 NE | 38 0.00 32.9 64.7 0.00 52.5 65.6 14.9
Max     89.8 100 68.4 19.5 - 27.0 - 0.00 42.9 100.4 0.00 86.0 90.4 53.2
Avg     65.7 32 33.6 5.3 - 9.9 - 0.00 7.0 72.5 - - - -
Min     51.1 11 19.3 0.2 - 1.7 - 0.00 0.0 0.0 0.00 45.3 51.8 1.7

Latest Observation

111 Stations

Daily Data
as of 9/1/26 8:43 AM PDT
Station Date Daily Max Temp (°F) Daily Min Temp (°F) Daily Max RH (%) Daily Min RH (%) Wind Spd (mph) Wind Dir (°) Daily Max Wind (mph) Max Wind Dir (°) Time of Max Wind Daily Rain (In) Weekly Precip (In) Season Precip (In) Soil Moist (%) Fuel Temp (°F) Fuel Moisture (%) MinBV Day (V)
Hobart Mills 8/31/26 77.0   1.8 40.1   4.5 63   10 22   3 2.3   0.3 WSW | 245 21.7   6.1 SW | 227 1420 0.00 0.03 - 7.6   0.0 61.2   1.1 7   1 12.5   0.0
Prosser Dam 8/31/26 77.4   0.2 36.9   4.6 90   6 24   3 4.1   1.1 WSW | 248 23.2   3.4 WNW | 290 1555 0.00 0.09 - 5.4   0.0 61.1   1.2 8   1 12.6   0.2
West Incline Village 8/31/26 70.2   0.2 52.6   1.2 76   22 25   2 2.8   0.1 ENE | 64 15.4   1.2 S | 176 1608 0.00 0.26 - 11.9   0.1 62.7   1.0 8   1 12.5   0.0
Incline Village (Fairview Blvd) 8/31/26 72.7   0.1 54.1   0.8 84   29 25   4 1.2   0.1 SW | 222 13.7   2.5 W | 266 1634 0.00 0.33 - 7.7   0.0 66.0   0.9 8   1 12.6   0.1
Incline Village (Diamond Peak) 8/31/26 68.0   1.1 52.8   1.2 77   20 19   4 1.8   1.8 NW | 309 7.9   3.2 WNW | 288 1658 0.00 0.03 - 2.5   0.0 -11.3   0.1 - 12.5   0.0
Incline Village (Mill Creek) 8/31/26 73.0   0.6 52.4   3.9 73   16 22   2 1.1   0.4 SW | 220 11.9   2.6 NW | 316 1615 0.00 0.33 - 2.9   0.0 - - 12.5   0.0
Incline Village (Lakeshore Blvd) 8/31/26 71.9   0.2 46.4   3.3 78   1 29   6 1.6   0.5 SSW | 201 11.9   3.2 SW | 215 1633 0.00 0.30 - 18.6   1.5 59.7   0.5 11   0 12.4   0.0
Glenbrook 8/31/26 73.8   0.1 49.2   4.7 86   17 30   7 2.7   0.4 SW | 227 11.6   0.1 W | 265 1632 0.00 0.30 - 42.8   0.1 56.0   1.4 19   1 12.6   0.0
Zephyr Cove 8/31/26 73.4   0.8 51.9   1.6 72   8 26   4 0.6   0.0 NW | 309 10.6   2.7 NNW | 328 1449 0.00 0.32 - 2.8   0.1 64.3   0.3 8   1 12.6   0.0
Kingsbury Grade 8/31/26 74.4   0.6 48.6   1.8 64   1 23   0 1.5   0.8 NW | 308 11.9   0.9 SW | 226 1641 0.00 0.28 - 2.4   0.0 63.9   0.8 7   1 12.5   0.0
South Daggett Pass (Ridge) 8/31/26 68.8   1.6 51.9   0.6 64   3 25   4 1.7   0.4 WNW | 288 21.5   5.6 WSW | 239 1748 0.00 0.29 - 2.2   0.0 60.1   0.0 9   1 12.6   0.0
Palomino Valley 8/31/26 86.8   2.2 47.2   4.9 49   9 14   1 4.7   1.0 W | 274 28.3   10.9 WNW | 296 1725 0.00 0.03 - 6.7   0.0 69.9   1.9 6   1 12.5   0.0
East Cold Springs 8/31/26 82.8   2.0 56.1   7.1 41   4 17   1 7.8   1.1 WSW | 252 26.2   6.8 NW | 324 1617 0.00 0.00 - 1.6   0.0 70.9   3.0 5   0 12.6   0.0
Peavine 8/21/26 85.5   2.3 67.3   4.2 34   3 21   5 8.3   2.3 SSW | 213 26.8   4.0 SSW | 210 2106 0.00 0.00 - - - - 12.6   0.0
West Verdi Peak 8/31/26 78.2   0.5 51.4   4.4 56   5 21   3 2.6   0.3 W | 275 17.9   3.4 WNW | 294 1812 0.00 0.02 - 6.6   0.0 66.4   1.2 5   1 12.6   0.0
West Verdi 8/31/26 82.8   0.7 50.2   4.4 62   5 18   4 4.4   1.1 WSW | 246 26.0   9.3 WSW | 258 1800 0.00 0.06 - 6.3   0.0 71.2   1.5 3   1 12.6   0.0
South Verdi 8/31/26 79.4   1.4 53.6   1.9 53   9 21   3 13.8   4.7 SSW | 207 41.5   18.0 SSW | 206 2001 0.00 0.08 - 10.7   0.1 71.3   1.7 5   1 12.7   0.0
Northwest Reno 8/31/26 83.4   2.1 59.4   4.1 42   1 18   1 13.2   7.9 WSW | 254 45.8   25.6 W | 259 2009 0.00 0.05 - 25.2   0.1 -17.7   0.1 - 12.6   0.0
North Lawton 8/27/26 85.2   2.6 66.7   6.0 35   16 18   2 8.9   1.0 SW | 230 25.0   2.4 SW | 236 1526 0.00 0.00 - - - - 12.6   0.0
West Reno (Mogul) 8/31/26 81.9   0.1 54.5   4.9 50   1 19   2 5.4   1.0 WNW | 284 31.4   12.9 WSW | 249 1745 0.00 0.00 - 19.7   0.1 73.6   1.9 2   0 12.6   0.0
Caughlin (Hunter Lake Trail) 8/31/26 82.7   1.1 59.1   5.5 45   1 19   1 6.0   1.2 WSW | 248 34.4   12.8 SW | 233 1902 0.00 0.12 - 16.6   0.0 73.0   2.9 7   1 12.7   0.0
ArrowCreek 8/31/26 82.4   1.7 55.2   3.5 48   2 16   1 5.5   0.7 SSW | 203 24.8   7.6 N | 354 1243 0.00 0.14 - - - - 12.4   0.0
Tracy 8/31/26 88.7   4.1 57.6   2.6 46   3 14   1 6.1   1.8 NW | 322 29.2   14.2 NW | 311 1924 0.00 0.09 - 16.1   0.1 75.7   2.3 6   1 12.7   0.1
Virginia Highlands 8/31/26 78.9   1.0 59.5   5.3 39   10 18   1 3.5   0.5 SW | 214 18.8   1.2 S | 183 1546 0.00 0.12 - 8.0   0.0 71.0   3.6 6   1 12.6   0.0
Virginia City 8/31/26 76.3   0.7 60.2   5.3 41   3 19   0 6.3   1.5 WSW | 250 25.1   7.0 WNW | 283 1943 0.00 0.12 - 4.8   0.0 71.6   1.1 6   1 12.7   0.0
Six Mile Canyon 8/31/26 86.2   1.0 57.4   5.3 46   4 15   1 4.9   1.3 NW | 305 19.8   3.1 W | 270 1706 0.00 0.10 - 12.5   0.1 75.0   0.8 4   1 12.8   0.0
Mt Rose Highway 8/31/26 73.6   0.4 56.0   6.1 41   9 18   2 5.1   2.8 SW | 219 27.4   11.9 W | 264 1849 0.00 0.23 - 7.4   0.0 64.6   4.6 7   1 12.6   0.0
Pleasant Valley 8/31/26 83.6   0.0 51.9   5.7 59   4 15   1 4.3   0.8 WSW | 238 22.7   0.0 SSW | 212 1532 0.00 0.14 - 2.4   0.0 74.4   3.8 8   1 12.6   0.0
New Washoe City 8/31/26 81.9   0.8 51.9   4.1 49   2 16   1 6.4   2.3 WSW | 240 23.7   5.6 WSW | 247 2013 0.00 0.08 - 3.5   0.0 71.3   2.5 7   1 12.6   0.0
Franktown Creek 8/31/26 81.0   0.1 49.7   3.1 63   3 18   1 2.3   0.7 WSW | 252 21.5   5.6 NNW | 334 1817 0.00 0.14 - 7.1   0.1 68.0   3.8 8   1 12.6   0.0
Musgrove Creek 8/31/26 77.7   0.1 57.7   6.1 52   1 19   1 2.4   0.6 SSW | 210 19.0   1.6 SSW | 212 1855 0.00 0.21 - 10.2   0.0 71.6   3.1 8   1 12.6   0.0
East Carson 11/22/24 63.8   0.3 41.7   4.6 85   21 21   9 14.9   6.0 SW | 224 46.6   12.7 S | 171 1835 0.05 0.05 4.48 2.5   0.0 53.9   0.3 9   0 12.6   0.0
Kings Canyon 8/31/26 80.4   0.6 51.1   2.0 55   0 16   3 6.5   1.9 SW | 214 30.6   10.1 WSW | 250 1731 0.00 0.13 - 4.1   0.0 70.9   2.5 6   1 12.6   0.0
Carson City (Voltaire Canyon) 8/31/26 82.3   1.0 59.5   3.8 48   4 16   2 9.2   3.1 SW | 220 31.6   12.9 WSW | 243 1844 0.00 0.00 - 2.8   0.0 -11.0   0.0 - 12.7   0.0
Jacks Valley 8/31/26 80.7   0.2 54.0   4.1 57   5 19   1 5.8   1.8 WNW | 296 29.4   9.3 WNW | 295 1647 0.00 0.24 - 4.6   0.1 71.3   1.4 5   2 12.6   0.0
Genoa 8/31/26 83.3   0.1 54.5   5.9 59   2 19   0 1.5   0.6 W | 278 18.8   4.6 SSW | 208 2208 0.00 0.15 - 2.4   0.1 70.2   1.7 9   2 12.4   0.0
South Genoa (Walleys Hot Springs) 8/31/26 83.5   0.2 45.8   4.2 88   6 19   0 5.1   1.3 WNW | 294 32.5   8.0 NW | 320 1631 0.00 0.13 - 4.8   0.0 71.7   0.7 8   1 12.6   0.0
SW Gardnerville (HWY 88) 8/31/26 81.2   0.0 46.1   3.6 84   1 18   2 4.0   0.3 N | 356 26.4   7.9 WSW | 251 1655 0.00 0.03 - 2.8   0.0 68.9   2.2 9   1 9.6   0.1
Sheridan 8/31/26 83.8   1.4 50.7   5.3 68   1 15   5 4.5   0.5 NW | 312 34.3   13.4 S | 183 2330 0.00 0.05 - 1.1   0.0 72.7   0.5 4   1 12.6   0.0
Ruhenstroth 8/31/26 84.0   2.0 49.8   0.6 64   11 14   1 4.8   1.1 SSW | 201 26.8   7.3 S | 172 1708 0.00 0.06 - 7.0   0.1 72.6   2.4 6   1 12.7   0.0
Double Spring 8/31/26 78.8   0.6 45.7   7.0 73   2 19   1 4.5   0.4 NNW | 333 23.1   5.3 NNW | 331 1600 0.00 0.14 - 25.7   0.1 68.6   3.3 8   1 12.6   0.0
North Topaz Lake 8/31/26 81.9   1.2 58.9   0.9 44   0 17   0 5.2   0.0 WNW | 289 23.6   3.7 NW | 310 1648 0.00 0.22 - 7.6   0.1 73.8   0.6 6   1 12.6   0.0
Wild Oat Mountain 8/31/26 81.7   3.7 59.1   5.1 50   8 19   1 5.7   0.9 NNW | 335 31.0   11.4 SW | 230 1715 0.00 0.13 - 5.9   0.0 70.9   0.4 6   1 12.7   0.0
Smith Valley 8/31/26 86.5   3.7 55.4   5.4 53   2 15   2 4.7   1.2 NW | 326 26.7   12.4 NW | 310 1639 0.00 0.12 - 2.8   0.0 74.0   1.8 7   1 12.7   0.0
Pine Grove Mountain 8/31/26 71.4   1.8 55.4   4.0 44   4 21   2 5.6   0.7 NW | 314 23.2   5.4 WNW | 289 1741 0.00 0.10 - 7.4   0.1 66.3   2.9 5   1 12.7   0.0
Paradise Hill 8/31/26 88.1   8.3 43.8   2.7 46   0 13   3 5.2   0.7 E | 89 18.8   8.1 SSW | 203 1607 0.00 0.02 - 10.3   0.0 74.9   5.5 4   2 12.6   0.0
Winnemucca 8/31/26 87.9   6.6 49.4   0.2 39   3 12   1 7.7   2.6 ENE | 76 23.7   5.3 N | 354 1058 0.00 0.02 - 5.8   0.0 74.2   4.5 5   1 12.6   0.0
NE Elko 8/31/26 84.6   3.8 38.9   6.4 51   13 16   4 4.2   0.3 E | 100 31.3   9.6 ESE | 103 1714 0.00 0.02 - 5.7   0.0 65.4   0.1 4   1 12.5   0.0
North Elko 8/31/26 83.1   4.7 51.0   3.0 38   10 17   4 8.0   0.9 S | 186 27.2   6.5 E | 97 1739 0.00 0.05 - 24.8   0.1 72.1   2.3 7   1 12.6   0.0
South Elko 8/31/26 - 54.6   4.1 100   3 18   0 7.8   1.7 S | 172 24.8   1.5 SSE | 158 1907 0.00 0.03 - 13.7   0.1 73.3   0.9 6   6 12.6   0.0
Lamoille 8/31/26 79.8   2.2 48.4   0.5 57   1 20   6 6.0   0.4 SSE | 155 28.7   6.6 ESE | 102 1657 0.00 0.02 - 6.5   0.1 64.9   2.1 6   0 12.8   0.2
Reid Gardner Sub 8/31/26 100.4   1.0 69.3   7.1 45   15 19   3 7.0   1.7 S | 175 31.4   3.0 SE | 142 1508 0.00 0.00 - 25.8   0.3 91.3   2.8 2   0 12.6   0.0
Corn Creek 8/31/26 95.1   0.1 73.8   3.9 36   6 15   1 10.7   3.7 ESE | 119 33.4   1.0 E | 79 1257 0.00 0.00 - 3.2   0.0 87.2   0.1 2   0 12.4   0.0
Lucky Strike 8/31/26 82.3   1.1 69.0   3.9 38   7 18   4 10.5   4.7 S | 172 29.7   0.1 ENE | 78 1123 0.00 0.00 - 3.2   0.0 77.4   0.8 3   0 12.6   0.0
Lower Angel Peak 8/31/26 77.7   0.9 61.8   2.9 46   4 23   3 6.2   1.7 SE | 140 23.8   2.2 SSE | 156 1423 0.00 0.00 - 3.2   0.0 72.1   3.3 3   0 12.6   0.1
Angel Peak 8/31/26 66.2   2.7 54.2   3.1 56   8 30   6 16.3   7.8 S | 170 36.4   0.0 S | 177 0058 0.00 0.00 - 2.5   0.0 61.8   1.3 6   0 12.5   0.0
Upper Kyle Canyon 8/31/26 69.6   1.3 58.4   2.7 50   5 28   3 6.1   0.0 ENE | 62 34.0   2.1 ESE | 110 1752 0.00 0.00 - 7.8   0.0 70.0   0.8 6   0 12.6   0.0
Mt Charleston 8/31/26 70.3   0.1 56.3   2.6 50   4 28   2 3.7   1.1 WSW | 256 40.0   11.7 NNW | 343 1719 0.00 0.00 - 13.4   0.1 70.7   0.5 11   0 12.6   0.0
Mid Kyle Canyon 8/31/26 77.4   0.9 60.5   4.3 47   7 23   1 7.7   0.2 SW | 214 28.4   1.2 SSE | 167 1446 0.00 0.00 - 5.8   0.0 73.9   4.6 6   0 12.7   0.1
Blue Diamond 8/31/26 93.3   1.2 70.1   7.0 41   9 16   3 5.8   0.7 WSW | 238 25.0   1.7 SE | 129 1054 0.00 0.00 - 1.3   0.0 - - 12.6   0.0
Artesian Sub 8/31/26 103.1   0.2 81.1   6.0 34   8 15   1 5.0   0.5 SE | 133 25.8   3.3 SSE | 153 1642 0.00 0.00 - 11.8   0.0 - 0   0 12.6   0.0
North Henderson 8/31/26 102.5   0.5 84.4   6.1 40   0 14   0 10.6   2.3 SSE | 160 37.1   9.6 SSE | 152 2037 0.00 0.00 - 10.5   0.0 95.6   2.0 2   0 12.6   0.0
Sandy Valley 8/31/26 95.2   0.1 74.2   5.8 43   8 17   2 6.2   0.5 SSW | 195 26.0   0.1 SW | 221 1553 0.00 0.00 - 8.6   0.3 87.7   0.6 4   0 12.6   0.0
Searchlight 8/31/26 92.2   2.6 70.9   5.3 61   2 21   1 11.1   3.2 S | 171 34.3   5.7 SSE | 153 1345 0.00 0.00 - 6.2   0.1 83.8   5.8 3   1 12.5   0.0
Laughlin 8/31/26 103.7   5.9 89.0   0.4 49   6 27   10 11.1   3.7 S | 186 42.8   3.9 SE | 132 1308 0.00 0.00 - 4.6   0.1 96.4   3.8 6   1 12.7   0.0
31Mission Hills 8/31/26 96.9   2.1 80.8   4.8 43   4 17   2 11.5   2.4 S | 182 38.5   10.3 SSE | 150 1442 0.00 0.00 - 7.5   0.1 91.0   3.2 6   1 13.2   0.0
32 Enterprise Sierra Cliffs 8/31/26 94.8   0.4 78.0   4.9 30   3 13   1 10.0   3.7 SSW | 198 29.8   2.1 SW | 215 1619 0.00 0.00 - 1.5   0.0 89.6   0.3 4   0 13.2   0.0
29 Calico Basin 8/31/26 92.2   1.4 75.4   6.1 33   10 14   1 10.4   1.8 SSW | 204 29.8   3.0 SSW | 205 1659 0.00 0.00 - 2.7   0.1 85.2   0.8 3   0 13.2   0.0
28 Indian Springs 8/31/26 94.8   1.3 70.1   6.2 30   6 12   7 6.7   2.6 SSW | 204 32.5   1.5 WSW | 240 1420 0.00 0.00 - 4.8   0.1 85.0   3.3 4   0 13.2   0.0
30 Jean 8/31/26 95.4   0.6 71.0   5.5 36   4 13   2 8.8   0.2 SSW | 209 33.5   1.1 SW | 232 1555 0.00 0.00 - 5.4   0.2 87.5   0.0 3   0 13.1   0.0
VC Highlands NW 8/31/26 78.1   2.3 59.3   7.3 36   10 16   1 3.3   0.6 SW | 226 17.1   0.6 WNW | 284 1347 0.00 0.12 - 1.6   0.0 68.4   2.6 7   1 13.2   0.0
Glenbrook-Spooner Summit 8/31/26 69.9   0.5 47.8   6.1 73   5 18   1 4.9   1.3 WSW | 254 22.8   4.7 W | 262 1546 0.00 0.31 - 7.9   0.1 62.6   2.0 9   1 13.2   0.0
Hobo Hot Springs 8/31/26 83.8   0.3 44.5   4.1 87   5 15   0 3.8   0.4 WNW | 301 25.3   8.3 WNW | 288 1710 0.00 0.13 - 1.0   0.0 67.6   0.4 8   1 13.2   0.0
Jack Valley Ranch 2 8/31/26 80.5   0.6 54.6   5.2 52   0 17   0 5.3   0.6 WNW | 303 25.3   6.8 W | 263 1631 0.00 0.23 - 2.2   0.0 72.2   1.3 6   1 13.2   0.0
Genoa North 2 8/31/26 82.6   0.3 53.9   4.7 54   1 17   1 3.4   0.2 W | 271 24.5   6.3 SW | 232 1712 0.00 0.10 - 0.9   0.0 70.5   0.8 7   1 13.2   0.0
Mottsville 2 8/31/26 82.3   0.3 47.5   3.6 80   10 14   4 3.8   0.6 NNW | 334 30.6   1.4 WSW | 241 1703 0.00 0.18 - 1.2   0.1 68.3   0.5 9   2 13.2   0.0
Kingsbury Village 3 8/31/26 69.4   0.2 49.3   3.5 53   10 23   0 2.8   0.4 N | 349 15.6   5.5 SSW | 213 1413 0.00 0.29 - 3.2   0.0 59.7   1.3 10   3 13.2   0.0
Kingsbury-Benjamin Dr 2 8/31/26 69.7   0.6 52.9   4.6 62   4 22   1 1.7   0.2 WSW | 256 17.1   2.7 SSW | 213 1531 0.00 0.29 - 3.4   0.2 63.0   0.8 8   1 13.2   0.0
Smith Valley-Wellington 8/31/26 86.7   3.5 55.5   9.3 50   15 14   0 6.6   3.0 WSW | 238 23.2   9.9 SW | 224 2124 0.00 0.03 - 3.6   0.0 77.1   5.8 6   1 13.2   0.0
Sheridan South 2 8/31/26 83.1   2.1 47.0   2.9 76   5 15   3 4.3   0.6 NNE | 23 29.7   8.2 W | 264 1740 0.00 0.07 - 0.5   0.0 70.6   1.5 8   1 13.2   0.0
Silver Springs 8/31/26 88.3   4.6 54.2   2.5 43   8 11   1 8.0   3.7 SW | 230 31.9   16.2 W | 267 2229 0.00 0.08 - 5.1   0.0 77.5   3.6 7   1 13.1   0.0
Fernley 8/31/26 88.4   5.1 54.9   1.5 35   2 11   1 5.9   1.1 NNW | 338 22.5   0.2 N | 351 1824 0.00 0.04 - 3.1   0.1 78.6   4.2 5   1 13.2   0.0
Spanish Springs 8/31/26 86.7   2.5 47.8   2.2 58   3 15   0 4.2   2.0 W | 277 25.8   5.1 W | 275 1648 0.00 0.06 - 10.6   0.0 75.4   2.5 7   1 13.2   0.0
Suttcliffe South 2 8/31/26 85.0   3.5 51.5   5.6 41   7 12   3 7.1   2.1 W | 274 24.0   8.1 W | 267 1810 0.00 0.00 - 4.5   0.0 75.1 6   0 13.1   0.5
Lemmon Valley North 8/31/26 81.7   1.2 39.0   3.1 55   6 13   2 6.0   2.8 SW | 229 30.9   12.8 W | 271 1626 0.00 0.02 - 2.1   0.0 68.6   2.6 6   1 13.2   0.0
Lemmon Valley NW 3 8/31/26 84.2   2.3 46.0   5.3 54   3 14   0 5.9   1.9 WNW | 289 25.2   5.1 WNW | 301 1812 0.00 0.02 - 1.3   0.0 69.7   2.7 6   1 13.2   0.0
VC Highlands North 8/31/26 78.8   1.3 46.1   5.6 54   7 15   2 3.5   1.4 SW | 222 19.2   2.6 W | 271 1532 0.00 0.09 - 5.1   0.1 68.3   4.4 7   2 13.2   0.0
Upper Voltaire Cyn 8/31/26 78.5   1.2 58.5   1.5 47   6 15   2 5.9   0.2 SW | 234 28.4   9.6 SW | 232 1606 0.00 0.23 - 1.1   0.1 71.4   1.2 8   2 13.2   0.0
Yerington NW 8/31/26 85.9   3.9 46.4   1.3 81   2 13   1 4.2   0.4 NNW | 347 24.3   12.4 NW | 323 1746 0.00 0.20 - 7.3   0.0 71.4   3.0 10   2 13.2   0.0
Spanish Springs SW 8/31/26 85.2   2.1 52.2   4.6 43   5 15   1 5.4   1.7 WSW | 256 27.3   6.6 W | 263 1703 0.00 0.05 - 1.6   0.0 72.9   1.8 7   1 13.2   0.0
Cosgrave 2 8/26/26 94.1   3.1 59.4   0.6 40   15 11   2 5.7   1.4 SSW | 205 26.1   5.0 WSW | 249 1345 0.00 0.00 - 4.0   0.1 82.4   4.3 5   1 13.2   0.0
Winnemucca-Grass Valley 2 8/31/26 86.3   5.5 39.7   0.7 74   3 12   1 4.2   0.1 SSE | 154 15.6   0.1 WSW | 258 2302 0.00 0.14 - 8.0   0.1 68.0   2.0 8   1 13.1   0.0
Winnemucca-Dutch Flat Rd 8/31/26 87.7   7.7 51.5   0.7 36   5 11   2 5.7   0.9 NNW | 348 20.6   8.9 S | 189 1638 0.00 0.07 - 6.2   0.0 72.6   5.2 4   2 13.2   0.0
Paradise Valley 2 8/31/26 86.7   7.3 40.3   1.6 53   8 11   3 3.8   0.1 W | 264 19.4   1.2 SSE | 154 1341 0.00 0.08 - 12.9   0.0 68.9   5.3 4   2 13.2   0.0
Golconda 2 8/31/26 88.0   7.4 48.6   3.0 60   18 11   2 4.7   1.4 S | 171 18.6   8.2 SE | 127 1512 0.00 0.11 - 2.0   0.0 73.0   2.9 7   2 13.0   0.1
Battle Mountain - South 8/31/26 89.0   6.0 39.4   6.3 44   1 11   1 3.7   0.5 SSW | 208 16.9   3.2 S | 170 1704 0.00 0.01 - 9.2   0.0 71.0   0.2 3   2 13.1   0.0
Geiger Summit 8/31/26 74.9   0.9 56.9   4.8 100   0 100   0 3.6   0.7 SSW | 193 21.9   7.6 SSW | 200 1455 0.00 0.13 - 6.4   0.1 65.1   3.1 7   1 13.2   0.0
Combs Canyon 3 8/31/26 82.1   0.7 55.3   3.0 51   4 14   3 5.5   0.1 WSW | 253 28.6   9.3 W | 272 1623 0.00 0.11 - 1.0   0.1 71.8   0.1 7   1 13.2   0.0
Clear Creek 8/31/26 77.4   0.9 51.9   4.7 52   2 18   1 6.3   3.1 SW | 232 33.4   15.5 W | 262 2221 0.00 0.23 - 3.5   0.0 68.2   2.4 9   1 13.1   0.0
Eastlake 2 8/31/26 81.4   0.8 47.8   2.8 79   6 15   0 6.9   2.3 WSW | 256 31.8   9.1 WSW | 241 1756 0.00 0.11 - 3.4   0.0 68.4   1.7 7   1 13.3   0.0
Lovelock-Colado 2 8/31/26 87.9   4.4 52.1   5.6 32   16 12   0 6.6   1.5 N | 4 18.9   1.2 SW | 234 1531 0.00 0.06 - - 75.4   5.6 6   2 13.1   0.0
Spanish Springs NW 8/31/26 85.5   1.5 49.0   3.8 62   1 14   0 5.6   2.9 W | 278 28.3   9.2 WNW | 301 1929 0.00 0.04 - 12.8   0.1 - 5   1 13.1   0.0
Battle Mountain NW 8/31/26 89.2   7.9 43.6   10.9 40   7 12   1 5.4   0.3 S | 172 28.3   3.6 S | 187 1645 0.00 0.00 - 9.0   0.1 73.2   1.4 4   1 13.2   0.0
Austin 2 8/31/26 77.0   0.2 37.4   2.8 67   7 14   2 5.6   0.4 S | 182 27.4   3.8 S | 177 1212 0.11 0.24 - 2.3   0.1 58.4   7.8 10   2 13.2   0.0
Elko-Osino 8/31/26 86.7   6.0 40.6   4.2 48   15 13   3 5.3   0.5 SE | 136 34.2   11.6 ESE | 120 1723 0.00 0.00 - 1.5   0.0 67.8   0.7 6   1 13.2   0.1
Elko-Bill Fishpond 2 8/31/26 79.6   1.5 41.9   4.2 52   3 19   5 5.4   0.4 S | 170 34.6   15.6 S | 169 1648 0.00 0.00 - 3.5   0.1 62.5   3.0 6   0 13.2   0.1
Spring Creek SE 2 8/31/26 84.1   3.5 42.8   3.6 53   9 14   3 5.7   1.4 SSE | 157 24.5   3.5 S | 191 1912 0.00 0.00 - 0.3   0.1 65.9   9.0 6   0 13.2   0.2
Spring Creek NW 8/31/26 83.8   4.7 47.9   7.8 42   2 15   4 4.5   1.3 SSW | 200 25.1   5.7 E | 101 1740 0.00 0.00 - 2.2   0.0 65.6   10.8 5   0 13.2   0.0
Elko-Moleen 8/31/26 83.0 65.6 36 17 7.4 ESE | 120 29.9 WSW | 253 2218 0.00 0.00 - 6.5 72.9 7 13.0
Elko-West 8/31/26 81.0 60.0 42 21 5.4 S | 179 24.1 SSE | 156 1934 0.00 0.00 - - 60.2 6 12.8
Max   103.7 89.0 100 100 16.3 - 45.8 - - 0.11 - - 42.8 96.4 19 13.3
Avg   - - - - 5.6 - - - - - - - 6.9 69.1 6 -
Min   66.2 36.9 30 11 0.6 - 7.9 - - 0.00 - - 0.3 -17.7 0 9.6

Fosberg 6Hr Max

Map

Hourly Data

Fosberg 6Hr Max

Map

Hourly Data